Latest Coastal Weather Observations for Burnie Port

IDT60701

Issued at 7:45 pm EST Thursday 18 September 2014 (issued every 10 minutes, with the page automatically refreshed every 10 minutes)

About coastal observations | Map of coastal stations | Coastal observations for TAS | Marine services | Other Formats
Station Details ID: 091344 Name: BURNIE NTC AWS Lat: -41.05 Lon: 145.91 Height: 0.0 m
Data from the previous 72 hours. | See also: Recent months for locations in Tasmania
Date/Time
EST
Temp

°C
Wind Pressure Rain
since 9am
mm
Weather Cloud Vis
km
Sea
Height
m
Swell
Dir
 
Speed
knots
Gust
knots
hPa Trend Height
m
Period
s
Dir
18/07:30pm 10.3 W 7 11 1018.9 - - - - - - - - -
18/07:00pm 10.9 W 7 10 1018.5 - - - - - - - - -
18/06:30pm 11.3 W 6 11 1018.4 - - - - - - - - -
18/06:00pm 11.9 W 8 17 1018.3 - - - - - - - - -
18/05:30pm 12.1 WSW 8 14 1017.9 - - - - - - - - -
18/05:00pm 12.3 WSW 12 24 1018.0 - - - - - - - - -
18/04:30pm 12.7 WSW 12 23 1017.6 - - - - - - - - -
18/04:00pm 12.8 WSW 14 24 1017.6 - - - - - - - - -
18/03:30pm 13.4 WSW 11 21 1017.3 - - - - - - - - -
18/03:00pm 12.9 WSW 13 25 1017.4 - - - - - - - - -
18/02:30pm 12.7 WSW 13 21 1017.4 - - - - - - - - -
18/02:11pm 12.8 SW 15 25 1017.3 - - - - - - - - -
18/02:00pm 13.0 WSW 11 21 1017.2 - - - - - - - - -
18/01:30pm 12.7 SW 13 23 1017.2 - - - - - - - - -
18/01:00pm 13.3 WSW 14 23 1017.1 - - - - - - - - -
18/12:32pm 12.8 SW 15 25 1017.1 - - - - - - - - -
18/12:30pm 12.9 WSW 16 25 1017.2 - - - - - - - - -
18/12:00pm 12.6 WSW 12 20 1017.2 - - - - - - - - -
18/11:30am 12.1 WSW 13 22 1017.5 - - - - - - - - -
18/11:00am 11.7 WSW 12 22 1017.7 - - - - - - - - -
18/10:30am 11.6 SW 12 24 1017.9 - - - - - - - - -
18/10:00am 11.3 SW 5 10 1017.7 - - - - - - - - -
18/09:47am 10.5 SSW 20 25 1017.8 - - - - - - - - -
18/09:30am 10.3 WSW 8 16 1017.7 - - - - - - - - -
18/09:00am 9.8 SW 8 14 1017.4 - - - - - - - - -
18/08:30am 8.9 W 5 10 1017.1 - - - - - - - - -
18/08:00am 8.4 WNW 6 10 1016.8 - - - - - - - - -
18/07:30am 8.1 WNW 6 9 1016.8 - - - - - - - - -
18/07:00am 7.8 W 7 12 1016.3 - - - - - - - - -
18/06:30am 7.8 W 7 10 1016.0 - - - - - - - - -
18/06:00am 7.7 W 4 7 1015.6 - - - - - - - - -
18/05:30am 7.7 W 6 9 1015.3 - - - - - - - - -
18/05:00am 7.8 WSW 8 12 1014.9 - - - - - - - - -
18/04:30am 7.5 WSW 8 13 1014.7 - - - - - - - - -
18/04:00am 7.5 SW 10 17 1014.3 - - - - - - - - -
18/03:30am 7.6 SW 17 23 1013.8 - - - - - - - - -
18/03:00am 7.6 SW 18 26 1013.0 - - - - - - - - -
18/02:30am 7.8 SW 17 26 1012.6 - - - - - - - - -
18/02:00am 7.7 SW 21 27 1011.5 - - - - - - - - -
18/01:30am 7.3 SW 20 27 1011.6 - - - - - - - - -
18/01:00am 7.3 WSW 18 27 1012.2 - - - - - - - - -
18/12:30am 7.3 WSW 12 19 1012.6 - - - - - - - - -
18/12:00am 7.5 WSW 15 22 1012.0 - - - - - - - - -
 
Date/Time
EST
Temp

°C
Wind Pressure Rain
since 9am
mm
Weather Cloud Vis
km
Sea
Height
m
Swell
Dir
 
Speed
knots
Gust
knots
hPa Trend Height
m
Period
s
Dir
17/11:30pm 7.3 WSW 15 25 1011.7 - - - - - - - - -
17/11:00pm 6.9 SSW 6 11 1012.2 - - - - - - - - -
17/10:30pm 6.5 WSW 14 21 1011.7 - - - - - - - - -
17/10:00pm 6.6 WSW 14 23 1011.8 - - - - - - - - -
17/09:30pm 6.6 W 10 19 1012.0 - - - - - - - - -
17/09:00pm 6.3 WSW 5 7 1012.1 - - - - - - - - -
17/08:30pm 6.6 W 7 10 1011.7 - - - - - - - - -
17/08:00pm 6.8 WSW 10 14 1011.5 - - - - - - - - -
17/07:30pm 7.7 SW 7 14 1011.3 - - - - - - - - -
17/07:00pm 7.9 W 5 7 1010.8 - - - - - - - - -
17/06:30pm 7.7 SW 6 10 1010.3 - - - - - - - - -
17/06:00pm 8.3 WSW 9 15 1010.0 - - - - - - - - -
17/05:30pm 8.4 WSW 9 18 1009.3 - - - - - - - - -
17/05:00pm 8.6 WSW 14 23 1008.5 - - - - - - - - -
17/04:38pm 8.7 WSW 16 26 1007.9 - - - - - - - - -
17/04:30pm 8.4 WSW 19 26 1007.8 - - - - - - - - -
17/04:02pm 9.2 SW 16 27 1007.0 - - - - - - - - -
17/04:00pm 9.1 SW 17 27 1007.0 - - - - - - - - -
17/03:40pm 9.5 SW 15 25 1006.6 - - - - - - - - -
17/03:30pm 9.2 WSW 15 25 1006.5 - - - - - - - - -
17/03:00pm 9.0 WSW 16 26 1006.3 - - - - - - - - -
17/02:42pm 8.9 WSW 15 26 1006.2 - - - - - - - - -
17/02:30pm 8.9 SW 12 22 1006.0 - - - - - - - - -
17/02:00pm 8.9 WSW 13 24 1006.1 - - - - - - - - -
17/01:30pm 9.9 W 15 25 1005.9 - - - - - - - - -
17/01:00pm 9.3 WSW 13 23 1005.7 - - - - - - - - -
17/12:30pm 8.2 SW 14 23 1006.1 - - - - - - - - -
17/12:16pm 8.3 W 15 26 1006.0 - - - - - - - - -
17/12:00pm 8.8 W 11 15 1005.8 - - - - - - - - -
17/11:48am 9.2 WSW 15 25 1006.1 - - - - - - - - -
17/11:30am 10.2 WSW 12 20 1005.9 - - - - - - - - -
17/11:00am 9.7 W 11 18 1005.8 - - - - - - - - -
17/10:30am 8.6 WSW 10 18 1006.0 - - - - - - - - -
17/10:00am 10.5 W 10 23 1006.1 - - - - - - - - -
17/09:30am 9.6 W 7 11 1005.9 - - - - - - - - -
17/09:00am 10.2 W 9 16 1006.3 - - - - - - - - -
17/08:30am 9.5 W 8 14 1006.6 - - - - - - - - -
17/08:00am 9.3 WNW 8 11 1006.6 - - - - - - - - -
17/07:30am 9.3 WNW 5 9 1006.5 - - - - - - - - -
17/07:00am 8.8 W 5 7 1006.5 - - - - - - - - -
17/06:30am 8.7 WNW 4 6 1006.7 - - - - - - - - -
17/06:00am 8.8 WNW 5 7 1007.0 - - - - - - - - -
17/05:30am 9.2 WNW 5 7 1006.9 - - - - - - - - -
17/05:00am 9.2 W 3 6 1007.1 - - - - - - - - -
17/04:30am 9.3 W 3 5 1007.3 - - - - - - - - -
17/04:00am 9.5 W 4 7 1007.4 - - - - - - - - -
17/03:30am 9.3 WSW 4 6 1007.5 - - - - - - - - -
17/03:00am 9.3 WSW 4 7 1008.0 - - - - - - - - -
17/02:30am 9.5 WSW 3 7 1008.2 - - - - - - - - -
17/02:00am 8.5 NNW 2 5 1008.5 - - - - - - - - -
17/01:30am 8.5 WNW 3 6 1008.9 - - - - - - - - -
17/01:00am 8.6 W 3 4 1009.1 - - - - - - - - -
17/12:30am 8.8 W 5 7 1009.3 - - - - - - - - -
17/12:00am 9.4 WSW 5 8 1009.2 - - - - - - - - -
 
Date/Time
EST
Temp

°C
Wind Pressure Rain
since 9am
mm
Weather Cloud Vis
km
Sea
Height
m
Swell
Dir
 
Speed
knots
Gust
knots
hPa Trend Height
m
Period
s
Dir
16/11:30pm 9.3 W 5 9 1009.4 - - - - - - - - -
16/11:00pm 8.5 S 1 2 1009.6 - - - - - - - - -
16/10:30pm 9.6 W 5 7 1009.7 - - - - - - - - -
16/10:00pm 9.8 W 4 6 1009.8 - - - - - - - - -
16/09:30pm 9.6 SW 2 5 1009.8 - - - - - - - - -
16/09:00pm 10.3 SW 2 5 1010.1 - - - - - - - - -
16/08:30pm 9.9 S 3 4 1010.1 - - - - - - - - -
16/08:00pm 10.4 W 4 6 1010.1 - - - - - - - - -
16/07:30pm 10.5 W 3 5 1010.0 - - - - - - - - -
16/07:00pm 10.7 W 5 7 1009.9 - - - - - - - - -
16/06:30pm 10.9 NW 2 3 1009.6 - - - - - - - - -
16/06:00pm 11.0 NW 2 4 1009.6 - - - - - - - - -
16/05:30pm 10.7 N 1 2 1009.7 - - - - - - - - -
16/05:00pm 10.7 NNE 2 4 1009.5 - - - - - - - - -
16/04:30pm 10.5 NE 2 4 1009.4 - - - - - - - - -
16/04:00pm 10.3 SE 3 5 1009.3 - - - - - - - - -
16/03:30pm 10.2 SE 6 7 1009.5 - - - - - - - - -
16/03:00pm 10.1 - - - 1009.6 - - - - - - - - -
16/02:30pm 9.8 S 8 10 1009.8 - - - - - - - - -
16/02:00pm 9.7 S 8 9 1010.2 - - - - - - - - -
16/01:30pm 9.7 S 7 9 1010.5 - - - - - - - - -
16/01:00pm 9.6 S 6 8 1010.9 - - - - - - - - -
16/12:30pm 9.5 S 8 10 1011.0 - - - - - - - - -
16/12:00pm 9.6 SSE 9 12 1011.1 - - - - - - - - -
16/11:30am 9.5 SSE 9 12 1011.3 - - - - - - - - -
16/11:00am 9.6 SE 9 12 1011.7 - - - - - - - - -
16/10:30am 9.6 SSE 9 11 1011.8 - - - - - - - - -
16/10:00am 9.4 SE 13 17 1012.1 - - - - - - - - -
16/09:30am 9.3 SSE 10 14 1012.3 - - - - - - - - -
16/09:00am 9.5 SSE 12 17 1012.5 - - - - - - - - -
16/08:30am 9.5 SSE 11 15 1012.6 - - - - - - - - -
16/08:00am 9.2 S 9 11 1012.6 - - - - - - - - -
16/07:30am 9.3 S 8 12 1012.5 - - - - - - - - -
16/07:00am 9.1 S 10 12 1012.5 - - - - - - - - -
16/06:30am 9.2 S 11 14 1012.4 - - - - - - - - -
16/06:00am 9.4 S 10 13 1012.6 - - - - - - - - -

Other Formats:

Comma delimited format used in spreadsheet applications
http://www.bom.gov.au/fwo/IDT60701/IDT60701.95963.axf

JavaScript Object Notation format (JSON) in row-major order
http://www.bom.gov.au/fwo/IDT60701/IDT60701.95963.json